Time;durP1;ratioP1;P1;durP2;ratioP2;P2;SDS_P1;SDS_P2;PMS_P1;PMS_P2;Temp;Humidity;BMP_temperature;BMP_pressure;BME280_temperature;BME280_humidity;BME280_pressure;Samples;Min_cycle;Max_cycle;Signal;HPM_P1;HPM_P2
2020/12/01 00:01:08;;;;;;;32.40;22.70;;;0.00;71.80;;;;;;3603382;32;20414;-81
2020/12/01 00:03:34;;;;;;;35.80;23.00;;;0.00;71.80;;;;;;3606284;39;20347;-83
2020/12/01 00:06:01;;;;;;;32.73;22.27;;;0.10;71.90;;;;;;3607863;32;20354;-80
2020/12/01 00:08:30;;;;;;;35.23;22.47;;;0.00;71.70;;;;;;3612721;32;20360;-80
2020/12/01 00:10:57;;;;;;;38.73;22.90;;;0.10;72.00;;;;;;3605389;32;20350;-80
2020/12/01 00:13:23;;;;;;;35.97;22.40;;;0.10;71.90;;;;;;3608360;39;20355;-80
2020/12/01 00:15:49;;;;;;;36.77;25.03;;;0.10;72.10;;;;;;3607472;39;20410;-80
2020/12/01 00:18:16;;;;;;;34.53;23.00;;;0.10;71.90;;;;;;3606961;32;20358;-80
2020/12/01 00:20:42;;;;;;;35.20;23.30;;;0.10;71.90;;;;;;3617827;32;20378;-79
2020/12/01 00:23:09;;;;;;;36.10;22.70;;;0.10;71.80;;;;;;3609125;39;20379;-78
2020/12/01 00:25:36;;;;;;;32.83;21.23;;;0.10;72.00;;;;;;3611134;32;20425;-81
2020/12/01 00:28:03;;;;;;;34.03;23.40;;;0.10;72.60;;;;;;3608798;39;20340;-78
2020/12/01 00:30:29;;;;;;;35.43;22.80;;;0.10;73.10;;;;;;3611510;32;20357;-80
2020/12/01 00:32:55;;;;;;;38.50;24.33;;;0.10;73.70;;;;;;3614618;32;20443;-79
2020/12/01 00:35:24;;;;;;;40.00;24.33;;;0.10;74.20;;;;;;3606055;32;20436;-81
2020/12/01 00:37:51;;;;;;;34.87;21.77;;;0.00;75.00;;;;;;3615687;32;20698;-80
2020/12/01 00:40:19;;;;;;;37.73;24.37;;;0.00;75.20;;;;;;3611560;32;20366;-81
2020/12/01 00:42:47;;;;;;;34.80;21.63;;;0.00;75.70;;;;;;3615879;39;20375;-80
2020/12/01 00:45:14;;;;;;;37.87;23.23;;;-0.10;76.60;;;;;;3616120;39;20331;-79
2020/12/01 00:47:42;;;;;;;39.87;25.07;;;-0.10;78.10;;;;;;3607769;32;20353;-79
2020/12/01 00:50:10;;;;;;;36.97;23.30;;;-0.10;78.70;;;;;;3611614;39;20376;-81
2020/12/01 00:52:37;;;;;;;35.70;23.67;;;-0.10;80.30;;;;;;3615100;32;20679;-81
2020/12/01 00:55:04;;;;;;;35.13;22.10;;;-0.10;79.40;;;;;;3610657;32;20370;-79
2020/12/01 00:57:30;;;;;;;35.10;24.50;;;-0.10;80.00;;;;;;3611993;39;20454;-80
2020/12/01 00:59:58;;;;;;;38.80;23.40;;;-0.10;80.30;;;;;;3607116;32;20362;-79
2020/12/01 01:02:24;;;;;;;41.43;24.93;;;-0.10;80.90;;;;;;3614340;32;20336;-80
2020/12/01 01:04:50;;;;;;;39.10;23.50;;;-0.10;81.80;;;;;;3616167;32;20346;-81
2020/12/01 01:07:18;;;;;;;38.10;24.00;;;-0.10;84.00;;;;;;3615613;32;20424;-82
2020/12/01 01:09:45;;;;;;;35.07;23.50;;;-0.10;84.10;;;;;;3621718;39;20390;-83
2020/12/01 01:12:12;;;;;;;36.93;24.37;;;-0.10;85.30;;;;;;3618587;39;20380;-83
2020/12/01 01:14:38;;;;;;;41.20;24.60;;;-0.20;85.20;;;;;;3618652;39;20342;-81
2020/12/01 01:17:08;;;;;;;41.87;25.20;;;-0.30;87.90;;;;;;3615762;32;20378;-80
2020/12/01 01:19:35;;;;;;;41.63;25.70;;;-0.20;89.20;;;;;;3613564;32;20452;-80
2020/12/01 01:22:01;;;;;;;46.47;25.60;;;-0.20;90.20;;;;;;3611714;39;20366;-80
2020/12/01 01:24:27;;;;;;;47.60;28.20;;;-0.20;90.30;;;;;;3608199;32;20422;-80
2020/12/01 01:26:54;;;;;;;41.77;23.90;;;-0.30;90.20;;;;;;3612821;39;20364;-79
2020/12/01 01:29:22;;;;;;;40.07;24.47;;;-0.20;90.50;;;;;;3603209;39;20435;-80
2020/12/01 01:31:53;;;;;;;40.67;25.40;;;-0.20;90.70;;;;;;3614038;32;20362;-79
2020/12/01 01:34:21;;;;;;;38.03;22.40;;;;;;;;;;3609887;32;20405;-79
2020/12/01 01:36:47;;;;;;;42.30;25.30;;;-0.20;91.00;;;;;;3609856;39;20445;-83
2020/12/01 01:39:14;;;;;;;41.13;24.63;;;-0.30;91.30;;;;;;3609421;39;20360;-79
2020/12/01 01:41:42;;;;;;;39.77;25.50;;;-0.30;92.30;;;;;;3611939;32;20377;-79
2020/12/01 01:44:20;;;;;;;42.13;24.80;;;-0.30;92.80;;;;;;3611504;32;20736;-80
2020/12/01 01:46:51;;;;;;;39.30;25.10;;;-0.30;92.90;;;;;;3612871;32;20371;-80
2020/12/01 01:49:32;;;;;;;40.50;24.77;;;-0.30;93.10;;;;;;3610900;32;20354;-80
2020/12/01 01:51:59;;;;;;;38.50;23.70;;;-0.40;93.30;;;;;;3617899;39;20390;-79
2020/12/01 01:54:27;;;;;;;45.57;26.23;;;-0.30;94.30;;;;;;3617429;39;20439;-78
2020/12/01 01:56:57;;;;;;;41.00;26.27;;;-0.40;94.80;;;;;;3613392;32;20442;-80
2020/12/01 01:59:24;;;;;;;43.53;24.77;;;-0.30;95.80;;;;;;3616022;32;20343;-81
2020/12/01 02:01:51;;;;;;;40.60;24.20;;;-0.30;96.10;;;;;;3614142;32;20348;-78
2020/12/01 02:04:20;;;;;;;47.07;26.30;;;-0.30;96.60;;;;;;3625062;32;20383;-78
2020/12/01 02:06:50;;;;;;;43.60;26.33;;;-0.30;96.10;;;;;;3609981;32;20358;-78
2020/12/01 02:09:19;;;;;;;44.90;27.20;;;-0.30;95.90;;;;;;3614815;39;20357;-78
2020/12/01 02:11:47;;;;;;;42.13;26.60;;;-0.30;96.00;;;;;;3613507;32;20387;-79
2020/12/01 02:14:18;;;;;;;44.17;25.70;;;-0.30;95.80;;;;;;3613846;32;20344;-81
2020/12/01 02:16:49;;;;;;;45.80;26.97;;;-0.20;96.90;;;;;;3610550;32;20359;-78
2020/12/01 02:19:18;;;;;;;42.77;24.20;;;-0.20;96.80;;;;;;3614647;32;20340;-79
2020/12/01 02:21:45;;;;;;;43.57;27.77;;;-0.20;95.90;;;;;;3615097;32;20873;-79
2020/12/01 02:24:16;;;;;;;39.73;25.10;;;-0.20;95.30;;;;;;3611070;32;21031;-79
2020/12/01 02:26:45;;;;;;;41.50;26.70;;;-0.20;94.50;;;;;;3613858;32;20341;-78
2020/12/01 02:29:15;;;;;;;46.60;28.63;;;-0.20;95.60;;;;;;3614106;32;20340;-79
2020/12/01 02:31:41;;;;;;;45.53;25.40;;;-0.20;95.10;;;;;;3611854;39;20639;-79
2020/12/01 02:34:11;;;;;;;43.30;27.13;;;-0.20;95.90;;;;;;3613102;32;20429;-78
2020/12/01 02:36:37;;;;;;;42.53;24.87;;;-0.20;96.80;;;;;;3616897;32;20361;-77
2020/12/01 02:39:04;;;;;;;43.27;25.90;;;-0.20;96.50;;;;;;3612914;32;20352;-78
2020/12/01 02:41:31;;;;;;;44.50;26.30;;;-0.20;96.20;;;;;;3610475;39;20391;-80
2020/12/01 02:43:58;;;;;;;42.53;24.90;;;-0.10;97.00;;;;;;3612181;32;20732;-78
2020/12/01 02:46:33;;;;;;;45.00;25.60;;;-0.20;96.60;;;;;;3616401;32;20345;-81
2020/12/01 02:48:59;;;;;;;47.17;25.50;;;-0.10;97.40;;;;;;3618366;39;20326;-81
2020/12/01 02:51:26;;;;;;;44.60;27.70;;;-0.10;96.90;;;;;;3627930;32;20376;-79
2020/12/01 02:53:52;;;;;;;45.87;26.67;;;-0.10;95.90;;;;;;3621855;32;20302;-79
2020/12/01 02:56:19;;;;;;;38.83;25.70;;;-0.10;97.00;;;;;;3615663;39;20349;-79
2020/12/01 02:58:45;;;;;;;41.10;25.80;;;-0.10;96.80;;;;;;3611817;39;20804;-81
2020/12/01 03:01:12;;;;;;;47.10;26.67;;;-0.10;96.50;;;;;;3608739;32;20364;-79
2020/12/01 03:03:38;;;;;;;38.17;24.57;;;0.00;97.10;;;;;;3613115;32;20633;-80
2020/12/01 03:06:07;;;;;;;46.73;26.80;;;0.00;94.50;;;;;;3610368;32;20339;-81
2020/12/01 03:08:33;;;;;;;46.60;26.10;;;0.00;96.30;;;;;;3623242;32;20358;-79
2020/12/01 03:11:00;;;;;;;43.77;25.63;;;0.00;95.90;;;;;;3612079;32;20406;-79
2020/12/01 03:13:26;;;;;;;48.47;27.30;;;0.00;95.70;;;;;;3608370;32;20847;-79
2020/12/01 03:15:54;;;;;;;40.30;26.10;;;0.00;94.80;;;;;;3610609;32;20851;-78
2020/12/01 03:18:22;;;;;;;45.37;24.57;;;-0.20;95.40;;;;;;3604944;39;20373;-78
2020/12/01 03:20:48;;;;;;;53.10;29.07;;;0.00;96.60;;;;;;3612395;32;20448;-79
2020/12/01 03:23:15;;;;;;;47.93;26.43;;;0.10;96.00;;;;;;3608069;32;20461;-78
2020/12/01 03:25:41;;;;;;;45.53;28.07;;;0.10;96.20;;;;;;3607703;32;20349;-80
2020/12/01 03:28:08;;;;;;;48.73;27.60;;;0.10;95.40;;;;;;3608184;32;20355;-80
2020/12/01 03:30:34;;;;;;;48.13;28.30;;;0.10;95.50;;;;;;3604361;32;20369;-79
2020/12/01 03:33:00;;;;;;;43.97;28.00;;;0.10;94.90;;;;;;3610859;39;20384;-79
2020/12/01 03:35:29;;;;;;;44.20;27.80;;;0.10;95.20;;;;;;3606514;32;20387;-82
2020/12/01 03:37:56;;;;;;;45.80;27.80;;;0.10;96.00;;;;;;3604390;32;20867;-79
2020/12/01 03:40:23;;;;;;;48.47;29.27;;;0.10;96.00;;;;;;3610539;32;20422;-81
2020/12/01 03:42:49;;;;;;;48.57;28.40;;;0.10;95.80;;;;;;3607467;39;20344;-78
2020/12/01 03:45:15;;;;;;;51.73;29.80;;;0.10;95.90;;;;;;3609457;32;20460;-79
2020/12/01 03:47:42;;;;;;;48.83;27.53;;;0.10;95.90;;;;;;3609933;39;20345;-80
2020/12/01 03:50:09;;;;;;;46.00;27.67;;;0.10;94.90;;;;;;3608170;32;20364;-79
2020/12/01 03:52:37;;;;;;;46.67;28.23;;;0.10;94.90;;;;;;3607663;39;20373;-80
2020/12/01 03:55:04;;;;;;;46.47;28.80;;;0.10;95.00;;;;;;3608547;39;20357;-80
2020/12/01 03:57:40;;;;;;;42.93;27.90;;;0.10;95.70;;;;;;3612364;32;20355;-80
2020/12/01 04:00:06;;;;;;;45.73;27.80;;;0.00;95.70;;;;;;3609487;32;20340;-82
2020/12/01 04:02:33;;;;;;;48.93;29.73;;;0.10;96.90;;;;;;3610293;39;20382;-78
2020/12/01 04:04:59;;;;;;;48.37;28.07;;;0.10;96.70;;;;;;3611476;32;20373;-79
2020/12/01 04:07:25;;;;;;;49.77;28.60;;;0.10;96.70;;;;;;3611932;32;20358;-78
2020/12/01 04:09:53;;;;;;;50.40;27.07;;;0.00;94.90;;;;;;3609560;39;20373;-79
2020/12/01 04:12:19;;;;;;;47.70;27.90;;;0.10;96.90;;;;;;3609406;32;20813;-79
2020/12/01 04:14:45;;;;;;;49.07;28.00;;;0.10;97.60;;;;;;3609734;32;20347;-80
2020/12/01 04:17:12;;;;;;;46.77;28.20;;;0.10;96.60;;;;;;3605407;32;20836;-79
2020/12/01 04:19:38;;;;;;;46.33;27.93;;;0.10;96.80;;;;;;3607357;32;20817;-82
2020/12/01 04:22:05;;;;;;;48.17;29.93;;;0.10;96.60;;;;;;3612599;39;20378;-81
2020/12/01 04:24:31;;;;;;;48.30;28.40;;;0.10;96.80;;;;;;3604038;39;20689;-79
2020/12/01 04:26:58;;;;;;;45.50;27.60;;;0.10;97.30;;;;;;3610128;39;20363;-79
2020/12/01 04:29:24;;;;;;;50.70;28.10;;;0.20;98.10;;;;;;3609660;32;20822;-79
2020/12/01 04:31:51;;;;;;;48.10;29.40;;;0.20;96.60;;;;;;3604298;32;20435;-79
2020/12/01 04:34:17;;;;;;;52.40;29.53;;;0.20;97.30;;;;;;3608085;32;20384;-80
2020/12/01 04:36:44;;;;;;;47.40;26.80;;;0.10;95.30;;;;;;3609072;32;20351;-79
2020/12/01 04:39:11;;;;;;;59.47;29.50;;;0.10;98.40;;;;;;3607818;39;20475;-79
2020/12/01 04:41:37;;;;;;;55.00;30.13;;;0.20;98.40;;;;;;3614024;39;21167;-80
2020/12/01 04:44:05;;;;;;;85.23;32.10;;;0.20;98.00;;;;;;3602744;32;20431;-79
2020/12/01 04:46:34;;;;;;;46.67;27.60;;;0.20;97.80;;;;;;3611794;39;20359;-80
2020/12/01 04:49:05;;;;;;;46.53;27.37;;;0.20;97.50;;;;;;3603957;32;20344;-78
2020/12/01 04:52:02;;;;;;;52.53;29.07;;;0.20;99.90;;;;;;3616846;32;20351;-81
2020/12/01 04:55:00;;;;;;;44.40;27.40;;;0.20;98.70;;;;;;3613542;32;20335;-80
2020/12/01 04:57:47;;;;;;;47.03;28.63;;;0.20;97.90;;;;;;3611567;32;20386;-79
2020/12/01 05:00:24;;;;;;;47.17;28.53;;;0.20;98.90;;;;;;3602485;32;20760;-80
2020/12/01 05:03:09;;;;;;;52.47;29.40;;;0.30;99.40;;;;;;3613930;32;20355;-78
2020/12/01 05:06:12;;;;;;;43.47;26.63;;;0.20;98.90;;;;;;3605387;32;20381;-80
2020/12/01 05:08:46;;;;;;;51.63;28.13;;;0.30;99.90;;;;;;3608906;32;20375;-81
2020/12/01 05:11:20;;;;;;;47.47;27.93;;;0.30;99.90;;;;;;3610036;39;20797;-83
2020/12/01 05:13:55;;;;;;;49.60;28.10;;;0.30;99.60;;;;;;3605084;39;20448;-79
2020/12/01 05:16:35;;;;;;;47.20;26.97;;;0.30;97.80;;;;;;3609753;32;20465;-79
2020/12/01 05:19:02;;;;;;;50.73;29.47;;;0.30;98.50;;;;;;3603510;32;20371;-78
2020/12/01 05:21:28;;;;;;;49.10;28.80;;;0.30;98.60;;;;;;3606162;33;20511;-78
2020/12/01 05:23:55;;;;;;;45.83;29.20;;;0.30;98.80;;;;;;3613940;32;20353;-80
2020/12/01 05:26:22;;;;;;;48.50;27.57;;;0.30;99.10;;;;;;3605584;39;20383;-82
2020/12/01 05:28:52;;;;;;;54.80;30.50;;;0.30;98.80;;;;;;3612065;32;20343;-78
2020/12/01 05:31:21;;;;;;;50.20;29.50;;;0.30;98.50;;;;;;3602831;32;20340;-80
2020/12/01 05:33:59;;;;;;;47.93;29.03;;;0.30;98.40;;;;;;3608961;32;20371;-79
2020/12/01 05:36:31;;;;;;;52.90;30.17;;;0.30;98.90;;;;;;3605046;32;20363;-80
2020/12/01 05:39:00;;;;;;;48.77;29.50;;;0.40;99.90;;;;;;3611196;32;20380;-80
2020/12/01 05:41:30;;;;;;;45.37;29.07;;;0.40;99.60;;;;;;3614198;32;20411;-82
2020/12/01 05:43:58;;;;;;;51.57;30.20;;;0.40;99.90;;;;;;3604993;39;20376;-79
2020/12/01 05:46:37;;;;;;;47.83;28.80;;;0.40;99.90;;;;;;3606615;39;20391;-80
2020/12/01 05:49:22;;;;;;;51.23;30.00;;;0.40;99.10;;;;;;3618666;32;20380;-78
2020/12/01 05:51:57;;;;;;;51.67;30.37;;;0.50;99.50;;;;;;3622693;39;20368;-82
2020/12/01 05:54:33;;;;;;;48.70;30.17;;;0.50;97.50;;;;;;3602845;32;20345;-79
2020/12/01 05:56:59;;;;;;;51.93;30.43;;;0.40;98.40;;;;;;3605126;32;20341;-81
2020/12/01 05:59:26;;;;;;;56.90;32.87;;;0.40;99.60;;;;;;3604156;39;20382;-79
2020/12/01 06:02:02;;;;;;;52.17;30.33;;;0.40;99.50;;;;;;3603655;32;20399;-81
2020/12/01 06:04:29;;;;;;;54.07;32.60;;;0.40;99.90;;;;;;3613410;39;20373;-79
2020/12/01 06:07:12;;;;;;;55.57;32.70;;;0.40;99.00;;;;;;3604295;32;20370;-78
2020/12/01 06:10:16;;;;;;;51.33;30.77;;;0.50;99.80;;;;;;3608064;39;20379;-81
2020/12/01 06:13:21;;;;;;;49.70;29.80;;;0.50;98.70;;;;;;3605385;32;20390;-80
2020/12/01 06:16:01;;;;;;;52.47;30.87;;;0.50;98.80;;;;;;3600242;33;20394;-80
2020/12/01 06:18:46;;;;;;;54.07;29.80;;;0.50;99.20;;;;;;3604497;32;22433;-81
2020/12/01 06:21:14;;;;;;;48.90;31.63;;;0.50;97.80;;;;;;3608317;39;20630;-81
2020/12/01 06:24:13;;;;;;;50.97;29.47;;;0.50;98.40;;;;;;3602515;39;20345;-81
2020/12/01 06:27:02;;;;;;;56.10;32.70;;;0.50;98.80;;;;;;3605536;32;20389;-80
2020/12/01 06:30:00;;;;;;;52.07;32.07;;;0.50;99.20;;;;;;3605728;32;20445;-81
2020/12/01 06:33:06;;;;;;;60.57;32.70;;;0.50;98.50;;;;;;3589879;32;20414;-81
2020/12/01 06:35:59;;;;;;;52.03;30.80;;;0.60;98.50;;;;;;3606181;32;20350;-81
2020/12/01 06:38:47;;;;;;;56.67;33.00;;;0.60;98.40;;;;;;3601311;32;20434;-78
2020/12/01 06:41:17;;;;;;;61.30;33.40;;;0.50;98.90;;;;;;3609225;32;20870;-82
2020/12/01 06:43:47;;;;;;;56.57;33.50;;;0.50;98.90;;;;;;3604518;32;20371;-79
2020/12/01 06:46:36;;;;;;;52.93;32.63;;;0.50;98.20;;;;;;3609209;39;20473;-79
2020/12/01 06:49:04;;;;;;;51.27;32.37;;;0.50;98.90;;;;;;3605020;39;20351;-79
2020/12/01 06:51:31;;;;;;;54.77;31.67;;;0.50;99.00;;;;;;3608684;39;20481;-80
2020/12/01 06:54:07;;;;;;;54.43;34.00;;;0.50;98.50;;;;;;3610670;32;20355;-83
2020/12/01 06:56:34;;;;;;;58.13;32.87;;;0.50;98.10;;;;;;3616791;32;20471;-83
2020/12/01 06:59:06;;;;;;;57.23;33.70;;;0.60;99.60;;;;;;3615888;32;20512;-84
2020/12/01 07:01:34;;;;;;;57.83;35.37;;;0.60;98.90;;;;;;3614088;32;20359;-84
2020/12/01 07:04:23;;;;;;;60.47;33.87;;;0.60;98.80;;;;;;3619642;32;20350;-83
2020/12/01 07:06:53;;;;;;;58.93;34.80;;;0.60;98.80;;;;;;3617912;32;20356;-84
2020/12/01 07:09:27;;;;;;;54.23;34.37;;;0.60;98.80;;;;;;3614064;39;20427;-85
2020/12/01 07:12:32;;;;;;;54.47;34.50;;;0.60;97.80;;;;;;3612126;32;20406;-82
2020/12/01 07:17:46;;;;;;;47.23;30.40;;;0.60;99.70;;;;;;3622039;39;20360;-84
2020/12/01 07:20:41;;;;;;;58.57;34.97;;;0.60;98.10;;;;;;3620287;32;20824;-84
2020/12/01 07:23:27;;;;;;;58.57;33.67;;;0.70;97.80;;;;;;3609466;32;20357;-84
2020/12/01 07:26:02;;;;;;;55.80;33.43;;;0.70;95.70;;;;;;3617926;39;20326;-83
2020/12/01 07:28:39;;;;;;;50.90;32.23;;;0.70;95.50;;;;;;3611491;32;20329;-85
2020/12/01 07:31:27;;;;;;;51.50;31.70;;;0.80;96.30;;;;;;3630197;32;20381;-86
2020/12/01 07:33:56;;;;;;;49.47;32.00;;;0.80;95.90;;;;;;3624697;32;20406;-84
2020/12/01 07:36:37;;;;;;;53.23;31.77;;;0.80;95.30;;;;;;3621846;39;20380;-82
2020/12/01 07:39:15;;;;;;;55.40;32.13;;;0.90;95.00;;;;;;3619352;32;20345;-82
2020/12/01 07:41:52;;;;;;;50.90;31.60;;;0.90;94.80;;;;;;3621054;32;20387;-84
2020/12/01 07:44:20;;;;;;;50.07;30.87;;;0.90;94.10;;;;;;3621390;32;20328;-84
2020/12/01 07:46:59;;;;;;;52.60;31.87;;;0.90;94.30;;;;;;3623545;32;20460;-84
2020/12/01 07:49:28;;;;;;;60.43;32.43;;;0.90;92.80;;;;;;3631821;32;20364;-82
2020/12/01 07:52:04;;;;;;;55.83;31.50;;;0.90;94.50;;;;;;3614427;32;20355;-85
2020/12/01 07:54:33;;;;;;;52.80;31.70;;;0.90;93.70;;;;;;3615177;32;20830;-83
2020/12/01 07:57:12;;;;;;;53.30;32.07;;;1.00;93.70;;;;;;3615453;39;20335;-84
2020/12/01 07:59:43;;;;;;;49.67;32.50;;;1.10;93.80;;;;;;3615954;32;20811;-85
2020/12/01 08:02:12;;;;;;;49.40;30.57;;;1.00;92.40;;;;;;3611861;32;20346;-84
2020/12/01 08:04:39;;;;;;;52.47;32.07;;;1.10;92.90;;;;;;3617599;32;20421;-84
2020/12/01 08:07:06;;;;;;;47.13;31.13;;;1.20;92.40;;;;;;3614437;32;20349;-85
2020/12/01 08:09:33;;;;;;;54.50;31.87;;;1.20;91.60;;;;;;3616676;32;20372;-81
2020/12/01 08:12:04;;;;;;;46.27;29.53;;;1.10;91.40;;;;;;3618006;32;20738;-82
2020/12/01 08:14:32;;;;;;;42.57;29.37;;;1.10;91.40;;;;;;3604058;32;20341;-84
2020/12/01 08:17:23;;;;;;;48.60;29.83;;;1.10;92.20;;;;;;3607689;39;20359;-83
2020/12/01 08:19:50;;;;;;;43.43;28.33;;;1.30;92.00;;;;;;3606743;32;20336;-84
2020/12/01 08:22:22;;;;;;;49.77;30.40;;;1.30;91.50;;;;;;3620038;39;20345;-81
2020/12/01 08:24:51;;;;;;;43.97;30.00;;;1.40;91.90;;;;;;3611191;32;20366;-80
2020/12/01 08:27:23;;;;;;;53.33;32.50;;;1.50;91.00;;;;;;3605638;32;20417;-81
2020/12/01 08:29:53;;;;;;;43.80;29.13;;;1.50;90.80;;;;;;3605450;32;20368;-80
2020/12/01 08:32:28;;;;;;;50.87;32.33;;;1.60;90.90;;;;;;3601479;32;20349;-82
2020/12/01 08:35:04;;;;;;;48.80;29.80;;;1.60;89.90;;;;;;3607799;32;20365;-83
2020/12/01 08:37:44;;;;;;;47.40;29.13;;;1.60;90.00;;;;;;3600292;39;20941;-83
2020/12/01 08:40:21;;;;;;;47.67;29.13;;;1.80;90.40;;;;;;3602722;32;20374;-82
2020/12/01 08:43:15;;;;;;;49.27;27.90;;;1.70;90.00;;;;;;3601833;32;20357;-82
2020/12/01 08:45:54;;;;;;;44.70;27.63;;;1.80;90.40;;;;;;3600321;39;20388;-80
2020/12/01 08:48:26;;;;;;;49.97;32.30;;;1.60;87.90;;;;;;3600276;39;20360;-82
2020/12/01 08:51:06;;;;;;;46.37;30.60;;;1.80;90.40;;;;;;3603482;32;21695;-82
2020/12/01 08:53:48;;;;;;;42.95;30.70;;;2.00;88.90;;;;;;3601981;39;20665;-82
2020/12/01 08:56:22;;;;;;;44.73;30.53;;;2.20;87.20;;;;;;3600306;39;20899;-80
2020/12/01 08:58:52;;;;;;;40.90;26.80;;;2.30;85.20;;;;;;3599490;39;20350;-81
2020/12/01 09:01:20;;;;;;;40.93;26.90;;;2.40;84.90;;;;;;3600173;32;20370;-80
2020/12/01 09:03:56;;;;;;;40.10;27.47;;;2.60;82.90;;;;;;3600804;32;20333;-80
2020/12/01 09:06:28;;;;;;;38.50;27.20;;;2.60;82.80;;;;;;3598849;32;20373;-80
2020/12/01 09:09:00;;;;;;;39.90;25.93;;;2.80;81.90;;;;;;3596647;39;21518;-81
2020/12/01 09:17:32;;;;;;;41.72;32.80;;;2.90;81.40;;;;;;3596477;32;20608;-79
2020/12/01 09:20:48;;;;;;;45.50;36.00;;;2.90;79.90;;;;;;3610267;39;20093;-79
2020/12/01 09:23:20;;;;;;;37.67;27.53;;;2.80;79.50;;;;;;3603882;32;20324;-78
2020/12/01 09:25:47;;;;;;;39.57;26.07;;;;;;;;;;3598965;39;20438;-79
2020/12/01 09:28:18;;;;;;;41.70;26.80;;;2.90;79.10;;;;;;3598854;32;20475;-83
2020/12/01 09:30:46;;;;;;;38.70;26.33;;;2.70;79.40;;;;;;3607653;39;20342;-84
2020/12/01 09:33:16;;;;;;;38.83;26.13;;;2.80;79.70;;;;;;3598727;40;20340;-85
2020/12/01 09:35:46;;;;;;;37.67;25.67;;;3.00;79.90;;;;;;3603267;39;20356;-82
2020/12/01 09:38:14;;;;;;;35.50;25.10;;;3.10;78.70;;;;;;3608765;39;20342;-82
2020/12/01 09:40:42;;;;;;;36.77;25.40;;;3.10;78.90;;;;;;3609803;32;20327;-84
2020/12/01 09:43:17;;;;;;;39.87;26.37;;;3.20;79.30;;;;;;3609746;32;20428;-84
2020/12/01 09:45:45;;;;;;;36.50;25.40;;;3.40;79.40;;;;;;3600684;32;20440;-84
2020/12/01 09:48:17;;;;;;;34.00;25.57;;;3.20;78.00;;;;;;3608244;39;20359;-84
2020/12/01 09:50:44;;;;;;;37.93;25.90;;;3.20;78.60;;;;;;3613117;32;20354;-81
2020/12/01 09:53:40;;;;;;;35.10;25.70;;;3.30;78.70;;;;;;3613495;39;20342;-81
2020/12/01 09:56:21;;;;;;;31.37;22.80;;;3.50;78.90;;;;;;3604640;39;20346;-82
2020/12/01 10:10:00;;;;;;;31.27;23.33;;;3.70;76.50;;;;;;3617220;39;20251;-87
2020/12/01 10:12:44;;;;;;;35.43;23.07;;;3.70;76.20;;;;;;3595764;32;20345;-86
2020/12/01 10:21:19;;;;;;;33.40;24.00;;;3.30;76.80;;;;;;3611115;32;20351;-84
2020/12/01 10:34:59;;;;;;;32.43;23.33;;;4.00;75.90;;;;;;3597104;40;20344;-85
2020/12/01 10:37:26;;;;;;;29.10;22.20;;;4.20;75.40;;;;;;3591298;40;20336;-83
2020/12/01 10:40:03;;;;;;;32.40;23.20;;;4.30;75.30;;;;;;3595527;40;20411;-82
2020/12/01 10:42:32;;;;;;;29.53;22.60;;;4.20;74.60;;;;;;3587861;40;20352;-84
2020/12/01 10:45:00;;;;;;;33.73;24.53;;;4.30;74.80;;;;;;3588277;40;20353;-86
2020/12/01 10:47:26;;;;;;;32.53;23.50;;;4.10;74.90;;;;;;3590849;32;20380;-83
2020/12/01 10:49:53;;;;;;;27.40;21.00;;;4.20;75.00;;;;;;3597584;40;20358;-87
2020/12/01 10:52:21;;;;;;;30.00;21.87;;;4.10;74.30;;;;;;3596126;32;20348;-83
2020/12/01 10:54:47;;;;;;;33.00;27.00;;;4.20;74.50;;;;;;3584028;32;20214;-78
2020/12/01 10:57:14;;;;;;;29.73;23.90;;;4.30;74.30;;;;;;3576098;40;20859;-85
2020/12/01 10:59:41;;;;;;;29.67;22.40;;;4.40;74.40;;;;;;3584163;32;20437;-78
2020/12/01 11:02:08;;;;;;;31.00;24.50;;;4.40;73.70;;;;;;3581855;32;20372;-80
2020/12/01 11:04:36;;;;;;;29.83;24.17;;;4.30;73.30;;;;;;3581768;32;20370;-80
2020/12/01 11:07:03;;;;;;;30.13;22.80;;;4.20;73.80;;;;;;3580534;40;20336;-83
2020/12/01 11:09:29;;;;;;;27.53;21.37;;;4.20;73.80;;;;;;3580587;40;20337;-82
2020/12/01 11:11:56;;;;;;;29.27;21.17;;;3.90;73.10;;;;;;3583991;40;20368;-78
2020/12/01 11:14:24;;;;;;;29.47;22.30;;;3.80;74.00;;;;;;3579231;40;20400;-82
2020/12/01 11:16:50;;;;;;;36.10;24.80;;;3.80;74.40;;;;;;3581798;32;20383;-78
2020/12/01 11:19:17;;;;;;;33.07;22.83;;;3.80;74.40;;;;;;3582172;32;20351;-82
2020/12/01 11:21:43;;;;;;;31.60;23.07;;;3.80;74.60;;;;;;3580573;32;20372;-79
2020/12/01 11:24:10;;;;;;;34.53;25.10;;;3.80;74.50;;;;;;3581311;32;20391;-79
2020/12/01 11:26:37;;;;;;;34.87;25.93;;;3.80;74.30;;;;;;3582756;32;20436;-82
2020/12/01 11:29:04;;;;;;;32.60;22.53;;;3.80;74.60;;;;;;3582741;32;20352;-82
2020/12/01 11:31:32;;;;;;;33.43;23.57;;;3.60;74.30;;;;;;3582120;32;20367;-81
2020/12/01 11:34:03;;;;;;;34.07;24.17;;;3.60;74.70;;;;;;3582967;40;20368;-79
2020/12/01 11:36:31;;;;;;;30.43;23.07;;;3.60;75.50;;;;;;3583156;32;20431;-80
2020/12/01 11:38:58;;;;;;;31.80;23.73;;;3.50;74.80;;;;;;3581305;32;20401;-80
2020/12/01 11:41:25;;;;;;;33.70;23.93;;;3.40;75.00;;;;;;3582027;40;20348;-79
2020/12/01 11:43:52;;;;;;;32.00;24.40;;;3.40;75.30;;;;;;3591995;32;20620;-79
2020/12/01 11:46:19;;;;;;;35.53;23.80;;;3.30;75.80;;;;;;3580492;32;20386;-80
2020/12/01 11:48:47;;;;;;;35.17;24.97;;;3.30;75.90;;;;;;3581416;32;20433;-79
2020/12/01 11:51:14;;;;;;;37.97;24.47;;;3.40;76.30;;;;;;3580751;32;20405;-79
2020/12/01 11:53:41;;;;;;;33.77;23.07;;;3.20;75.40;;;;;;3583062;32;20819;-80
2020/12/01 11:56:08;;;;;;;37.80;23.57;;;3.20;76.30;;;;;;3581908;33;20728;-79
2020/12/01 11:58:35;;;;;;;34.67;24.40;;;2.80;76.20;;;;;;3582186;32;20385;-79
2020/12/01 12:01:03;;;;;;;32.80;22.83;;;2.90;77.40;;;;;;3582501;40;20344;-80
2020/12/01 12:03:30;;;;;;;37.80;25.90;;;2.70;78.50;;;;;;3583727;40;20447;-79
2020/12/01 12:05:58;;;;;;;38.87;26.43;;;2.70;79.30;;;;;;3583187;32;20456;-83
2020/12/01 12:08:25;;;;;;;38.50;24.97;;;2.70;78.60;;;;;;3580817;40;20355;-77
2020/12/01 12:10:51;;;;;;;36.10;24.83;;;2.70;78.90;;;;;;3580856;32;20475;-79
2020/12/01 12:13:18;;;;;;;34.60;23.77;;;2.50;79.20;;;;;;3582946;32;20384;-79
2020/12/01 12:15:45;;;;;;;34.67;25.50;;;2.70;80.60;;;;;;3581468;32;20361;-81
2020/12/01 12:18:11;;;;;;;41.03;25.43;;;3.00;79.00;;;;;;3584803;32;20855;-80
2020/12/01 12:20:39;;;;;;;38.50;25.57;;;3.10;78.00;;;;;;3593981;39;20327;-87
2020/12/01 12:30:51;;;;;;;33.60;23.57;;;3.20;76.60;;;;;;3580205;40;20337;-84
2020/12/01 12:33:20;;;;;;;39.27;26.07;;;3.20;76.50;;;;;;3559006;32;20329;-86
2020/12/01 12:35:51;;;;;;;31.47;23.57;;;3.30;76.80;;;;;;4000823;27;20359;-79
2020/12/01 12:38:19;;;;;;;34.22;26.05;;;3.10;75.50;;;;;;3586029;32;20225;-85
2020/12/01 12:40:47;;;;;;;35.83;26.47;;;3.00;75.70;;;;;;3594156;39;20271;-84
2020/12/01 12:43:15;;;;;;;36.30;25.97;;;3.10;76.30;;;;;;3594037;32;20407;-85
2020/12/01 12:45:42;;;;;;;34.20;28.55;;;3.20;76.30;;;;;;3593576;39;20275;-83
2020/12/01 12:48:09;;;;;;;34.67;24.87;;;3.30;76.10;;;;;;3591851;32;20269;-83
2020/12/01 12:50:36;;;;;;;38.20;25.87;;;3.30;75.60;;;;;;3591880;40;20443;-83
2020/12/01 12:53:03;;;;;;;34.30;24.73;;;3.20;75.90;;;;;;3588301;32;20371;-82
2020/12/01 12:55:31;;;;;;;32.90;24.80;;;3.20;76.10;;;;;;3593800;39;20348;-85
2020/12/01 12:57:59;;;;;;;36.73;24.60;;;3.00;75.90;;;;;;3593121;39;20376;-84
2020/12/01 13:05:50;;;;;;;37.03;25.27;;;2.80;78.20;;;;;;3616424;32;20349;-88
2020/12/01 13:18:30;;;;;;;37.90;27.30;;;2.50;77.90;;;;;;3619642;32;20345;-87
2020/12/01 13:21:21;;;;;;;32.60;24.00;;;2.70;78.50;;;;;;3586198;32;20321;-89
2020/12/01 13:23:52;;;;;;;36.77;25.07;;;2.70;77.90;;;;;;3610542;32;20342;-87
2020/12/01 13:47:28;;;;;;;35.73;25.67;;;2.40;80.60;;;;;;3617146;39;20329;-85
2020/12/01 13:49:56;;;;;;;35.07;24.47;;;2.30;80.40;;;;;;3616266;32;20334;-86
2020/12/01 14:03:31;;;;;;;37.33;26.53;;;2.40;80.70;;;;;;4003050;34;20243;-87
2020/12/01 14:24:46;;;;;;;41.33;29.70;;;2.60;81.00;;;;;;3955586;27;20476;-86
2020/12/01 14:48:34;;;;;;;44.45;32.42;;;2.20;84.70;;;;;;3821103;32;20205;-83
2020/12/01 14:51:26;;;;;;;44.45;36.65;;;2.20;86.40;;;;;;3592463;32;20510;-85
2020/12/01 14:59:40;;;;;;;43.30;29.53;;;2.00;87.70;;;;;;3793960;32;20357;-85
2020/12/01 15:02:21;;;;;;;42.03;28.50;;;2.10;88.60;;;;;;3600557;32;20379;-88
2020/12/01 15:05:18;;;;;;;38.23;28.30;;;2.00;88.90;;;;;;3606158;32;20437;-85
2020/12/01 15:10:20;;;;;;;46.88;35.75;;;2.00;90.30;;;;;;3700013;32;20241;-85
2020/12/01 15:12:50;;;;;;;45.38;36.35;;;2.10;90.20;;;;;;3605816;32;20074;-87
2020/12/01 15:17:44;;;;;;;45.22;33.60;;;2.10;89.90;;;;;;3782685;34;20232;-79
2020/12/01 15:20:16;;;;;;;45.23;30.33;;;2.00;90.00;;;;;;3606042;32;20340;-81